createdAt,value
2022-09-06T00:00:17.342Z,64.1
2022-09-06T00:05:17.309Z,64.2
2022-09-06T00:10:17.256Z,64.2
2022-09-06T00:15:17.319Z,64.2
2022-09-06T00:20:17.319Z,64.2
2022-09-06T00:25:17.283Z,64.3
2022-09-06T00:30:17.305Z,64.3
2022-09-06T00:35:17.334Z,64.3
2022-09-06T00:40:17.439Z,64.4
2022-09-06T00:45:17.353Z,64.4
2022-09-06T00:50:17.334Z,64.5
2022-09-06T00:55:17.401Z,64.5
2022-09-06T01:00:17.416Z,64.5
2022-09-06T01:05:17.392Z,64.5
2022-09-06T01:10:17.396Z,64.5
2022-09-06T01:15:15.473Z,64.6
2022-09-06T01:20:15.399Z,64.5
2022-09-06T01:25:15.394Z,64.6
2022-09-06T01:30:15.477Z,64.6
2022-09-06T01:35:15.550Z,64.7
2022-09-06T01:40:15.495Z,64.8
2022-09-06T01:45:15.548Z,64.7
2022-09-06T01:50:15.639Z,64.6
2022-09-06T01:55:15.501Z,64.6
2022-09-06T02:00:15.538Z,64.6
2022-09-06T02:05:15.531Z,64.5
2022-09-06T02:10:15.564Z,64.5
2022-09-06T02:15:15.538Z,64.5
2022-09-06T02:20:15.607Z,64.5
2022-09-06T02:25:15.738Z,64.5
2022-09-06T02:30:15.782Z,64.4
2022-09-06T02:35:15.699Z,64.4
2022-09-06T02:40:15.730Z,64.3
2022-09-06T02:45:15.604Z,64.4
2022-09-06T02:50:15.554Z,64.4
2022-09-06T02:55:15.662Z,64.3
2022-09-06T03:00:15.726Z,64.5
2022-09-06T03:05:15.596Z,64.4
2022-09-06T03:10:15.770Z,64.3
2022-09-06T03:15:15.643Z,64.4
2022-09-06T03:20:15.613Z,64.3
2022-09-06T03:25:15.779Z,64.2
2022-09-06T03:30:15.748Z,64.2
2022-09-06T03:35:15.655Z,64.0
2022-09-06T03:40:15.860Z,64.0
2022-09-06T03:45:15.779Z,64.0
2022-09-06T03:50:15.744Z,63.9
2022-09-06T03:55:15.830Z,63.9
2022-09-06T04:00:16.750Z,63.8
2022-09-06T04:05:16.883Z,63.8
2022-09-06T04:10:16.711Z,63.9
2022-09-06T04:15:16.784Z,63.8
2022-09-06T04:20:16.821Z,63.7
2022-09-06T04:25:16.899Z,63.6
2022-09-06T04:30:16.757Z,63.6
2022-09-06T04:35:16.766Z,63.6
2022-09-06T04:40:16.901Z,63.6
2022-09-06T04:45:16.785Z,63.5
2022-09-06T04:50:16.967Z,63.6
2022-09-06T04:55:16.854Z,63.6
2022-09-06T05:00:16.866Z,63.6
2022-09-06T05:05:17.019Z,63.6
2022-09-06T05:10:16.956Z,63.6
2022-09-06T05:15:17.171Z,63.5
2022-09-06T05:20:16.936Z,63.6
2022-09-06T05:25:16.943Z,63.5
2022-09-06T05:30:17.105Z,63.6
2022-09-06T05:35:16.911Z,63.5
2022-09-06T05:40:16.843Z,63.5
2022-09-06T05:45:16.990Z,63.5
2022-09-06T05:50:16.956Z,63.5
2022-09-06T05:55:16.979Z,63.5
2022-09-06T06:00:16.962Z,63.5
2022-09-06T06:05:16.934Z,63.5
2022-09-06T06:10:17.266Z,63.6
2022-09-06T06:15:17.018Z,63.5
2022-09-06T06:20:17.147Z,63.5
2022-09-06T06:25:17.013Z,63.5
2022-09-06T06:30:18.583Z,63.5
2022-09-06T06:35:17.101Z,63.5
2022-09-06T06:40:17.137Z,63.5
2022-09-06T06:45:17.099Z,63.6
2022-09-06T06:50:17.090Z,63.6
2022-09-06T06:55:17.299Z,63.6
2022-09-06T07:00:17.062Z,63.7
2022-09-06T07:10:38.152Z,63.7
2022-09-06T07:15:17.324Z,63.8
2022-09-06T07:20:17.160Z,63.8
2022-09-06T07:25:21.169Z,63.8
2022-09-06T07:30:17.147Z,63.8
2022-09-06T07:35:17.096Z,63.8
2022-09-06T07:40:17.202Z,63.8
2022-09-06T07:45:17.218Z,63.6
2022-09-06T07:50:55.880Z,63.5
2022-09-06T07:55:17.233Z,63.4
2022-09-06T08:00:17.226Z,63.4
2022-09-06T08:06:08.487Z,63.4
2022-09-06T08:10:18.715Z,63.3
2022-09-06T08:15:17.322Z,63.2
2022-09-06T08:20:17.196Z,63.2
2022-09-06T08:25:17.234Z,63.2
2022-09-06T08:30:17.238Z,63.1
2022-09-06T08:35:17.349Z,63.1
2022-09-06T08:40:17.602Z,63.1
2022-09-06T08:45:17.241Z,63.1
2022-09-06T08:50:17.435Z,63.1
2022-09-06T08:55:17.420Z,63.1
2022-09-06T09:00:17.435Z,63.1
2022-09-06T09:05:17.278Z,63.0
2022-09-06T09:10:17.449Z,62.9
2022-09-06T09:15:17.412Z,62.9
2022-09-06T09:20:17.373Z,62.9
2022-09-06T09:25:15.402Z,62.9
2022-09-06T09:30:51.053Z,62.9
2022-09-06T09:35:15.409Z,62.9
2022-09-06T09:40:15.398Z,63.0
2022-09-06T09:45:15.426Z,62.9
2022-09-06T09:50:15.561Z,63.0
2022-09-06T09:55:15.409Z,63.1
2022-09-06T10:00:15.429Z,63.2
2022-09-06T10:05:15.510Z,63.2
2022-09-06T10:10:15.523Z,63.3
2022-09-06T10:15:15.462Z,63.5
2022-09-06T10:20:15.572Z,63.5
2022-09-06T10:25:15.504Z,63.5
2022-09-06T10:30:15.579Z,63.6
2022-09-06T10:35:15.615Z,63.6
2022-09-06T10:40:15.633Z,63.7
2022-09-06T10:45:15.595Z,63.8
2022-09-06T10:50:15.519Z,63.8
2022-09-06T10:55:15.564Z,63.8
2022-09-06T11:00:15.655Z,63.8
2022-09-06T11:05:51.196Z,63.8
2022-09-06T11:10:15.643Z,63.8
2022-09-06T11:15:15.673Z,63.8
2022-09-06T11:20:15.615Z,63.9
2022-09-06T11:25:15.649Z,63.9
2022-09-06T11:30:15.742Z,63.8
2022-09-06T11:35:15.662Z,63.8
2022-09-06T11:40:31.192Z,63.8
2022-09-06T11:45:15.669Z,63.9
2022-09-06T11:50:15.734Z,63.9
2022-09-06T11:55:18.843Z,63.9
2022-09-06T12:00:15.817Z,63.9
2022-09-06T12:05:15.784Z,63.7
2022-09-06T12:10:15.732Z,63.6
2022-09-06T12:15:15.695Z,63.6
2022-09-06T12:20:15.911Z,63.7
2022-09-06T12:25:15.797Z,63.7
2022-09-06T12:30:15.834Z,63.8
2022-09-06T12:35:58.897Z,63.8
2022-09-06T12:40:15.858Z,63.8
2022-09-06T12:45:15.818Z,63.9
2022-09-06T12:50:15.770Z,63.9
2022-09-06T12:55:15.988Z,64.0
2022-09-06T13:00:15.839Z,64.0
2022-09-06T13:05:15.873Z,64.0
2022-09-06T13:10:15.970Z,64.0
2022-09-06T13:15:15.787Z,63.9
2022-09-06T13:20:15.945Z,63.8
2022-09-06T13:25:19.866Z,63.9
2022-09-06T13:30:15.862Z,63.7
2022-09-06T13:35:15.922Z,63.6
2022-09-06T13:40:15.972Z,63.5
2022-09-06T13:45:16.036Z,63.2
2022-09-06T13:50:15.913Z,63.0
2022-09-06T13:55:15.987Z,62.8
2022-09-06T14:00:15.925Z,62.9
2022-09-06T14:05:16.077Z,63.0
2022-09-06T14:10:15.863Z,63.1
2022-09-06T14:15:16.005Z,63.2
2022-09-06T14:20:16.027Z,63.2
2022-09-06T14:25:16.175Z,63.4
2022-09-06T14:30:16.133Z,63.3
2022-09-06T14:35:16.176Z,63.4
2022-09-06T14:40:16.230Z,63.4
2022-09-06T14:45:16.037Z,63.6
2022-09-06T14:50:16.029Z,63.7
2022-09-06T14:55:16.259Z,63.4
2022-09-06T15:00:16.119Z,63.3
2022-09-06T15:05:16.138Z,63.5
2022-09-06T15:10:16.050Z,63.7
2022-09-06T15:15:16.048Z,63.8
2022-09-06T15:20:16.052Z,64.0
2022-09-06T15:25:16.220Z,64.1
2022-09-06T15:30:16.160Z,63.8
2022-09-06T15:35:16.200Z,63.7
2022-09-06T15:40:16.283Z,63.8
2022-09-06T15:45:16.155Z,63.8
2022-09-06T15:50:29.135Z,63.9
2022-09-06T15:55:16.152Z,64.0
2022-09-06T16:00:16.183Z,63.9
2022-09-06T16:05:16.289Z,64.0
2022-09-06T16:10:16.214Z,64.2
2022-09-06T16:15:16.277Z,64.2
2022-09-06T16:20:16.263Z,64.5
2022-09-06T16:25:16.266Z,64.5
2022-09-06T16:30:16.256Z,64.6
2022-09-06T16:35:16.211Z,64.7
2022-09-06T16:40:16.478Z,64.7
2022-09-06T16:45:16.299Z,65.0
2022-09-06T16:50:16.287Z,65.1
2022-09-06T16:55:16.474Z,65.5
2022-09-06T17:00:16.380Z,65.8
2022-09-06T17:05:16.481Z,65.8
2022-09-06T17:10:16.440Z,65.7
2022-09-06T17:15:16.372Z,65.7
2022-09-06T17:20:16.402Z,65.8
2022-09-06T17:25:16.387Z,65.8
2022-09-06T17:30:16.355Z,65.9
2022-09-06T17:35:16.361Z,65.9
2022-09-06T17:40:16.396Z,65.7
2022-09-06T17:45:16.505Z,65.8
2022-09-06T17:50:16.382Z,65.6
2022-09-06T17:55:16.565Z,65.6
2022-09-06T18:00:16.435Z,65.5
2022-09-06T18:05:16.541Z,65.4
2022-09-06T18:10:16.663Z,65.5
2022-09-06T18:15:16.510Z,65.4
2022-09-06T18:20:16.626Z,65.4
2022-09-06T18:25:16.541Z,65.5
2022-09-06T18:30:16.563Z,65.2
2022-09-06T18:35:16.654Z,65.2
2022-09-06T18:40:16.621Z,65.2
2022-09-06T18:45:16.496Z,65.2
2022-09-06T18:50:16.595Z,65.0
2022-09-06T18:55:16.686Z,64.8
2022-09-06T19:00:16.586Z,64.6
2022-09-06T19:05:16.592Z,64.5
2022-09-06T19:10:16.551Z,64.5
2022-09-06T19:15:16.627Z,64.5
2022-09-06T19:20:16.551Z,64.4
2022-09-06T19:25:16.598Z,64.3
2022-09-06T19:30:16.765Z,64.3
2022-09-06T19:35:16.567Z,64.2
2022-09-06T19:40:16.766Z,64.2
2022-09-06T19:45:16.662Z,64.1
2022-09-06T19:50:16.796Z,63.9
2022-09-06T19:55:16.735Z,63.9
2022-09-06T20:00:16.754Z,63.8
2022-09-06T20:05:16.824Z,63.7
2022-09-06T20:10:16.807Z,63.7
2022-09-06T20:15:16.718Z,63.7
2022-09-06T20:20:16.688Z,63.8
2022-09-06T20:25:16.662Z,63.8
2022-09-06T20:30:16.770Z,63.7
2022-09-06T20:35:16.767Z,63.6
2022-09-06T20:40:16.800Z,63.7
2022-09-06T20:45:17.387Z,63.7
2022-09-06T20:50:16.934Z,63.7
2022-09-06T20:55:16.860Z,63.6
2022-09-06T21:00:16.751Z,63.6
2022-09-06T21:05:16.831Z,63.5
2022-09-06T21:10:16.778Z,63.5
2022-09-06T21:15:16.966Z,63.5
2022-09-06T21:20:17.116Z,63.5
2022-09-06T21:25:17.036Z,63.5
2022-09-06T21:30:16.979Z,63.5
2022-09-06T21:35:16.891Z,63.4
2022-09-06T21:40:16.897Z,63.2
2022-09-06T21:45:17.033Z,63.2
2022-09-06T21:50:16.932Z,63.2
2022-09-06T21:55:16.919Z,62.9
2022-09-06T22:00:17.063Z,62.9
2022-09-06T22:05:17.052Z,62.9
2022-09-06T22:10:16.918Z,62.8
2022-09-06T22:15:17.122Z,62.8
2022-09-06T22:20:16.929Z,62.9
2022-09-06T22:25:17.015Z,62.9
2022-09-06T22:30:16.938Z,62.9
2022-09-06T22:35:17.047Z,62.9
2022-09-06T22:40:17.110Z,62.9
2022-09-06T22:45:17.086Z,62.9
2022-09-06T22:50:17.084Z,62.9
2022-09-06T22:55:17.063Z,63.0
2022-09-06T23:00:17.078Z,63.0
2022-09-06T23:05:17.188Z,63.1
2022-09-06T23:10:17.203Z,63.1
2022-09-06T23:15:17.112Z,63.1
2022-09-06T23:20:17.043Z,63.2
2022-09-06T23:25:17.095Z,63.2
2022-09-06T23:30:17.149Z,63.2
2022-09-06T23:35:17.196Z,63.2
2022-09-06T23:40:17.228Z,63.2
2022-09-06T23:45:17.105Z,63.2
2022-09-06T23:50:17.199Z,63.3
2022-09-06T23:55:17.205Z,63.4
